createdAt,value
2017-01-02T00:00:05.111Z,73385
2017-01-02T00:00:13.789Z,73382
2017-01-02T00:00:22.466Z,73384
2017-01-02T00:00:31.144Z,73388
2017-01-02T00:00:39.826Z,73383
2017-01-02T00:00:48.515Z,73378
2017-01-02T00:00:57.194Z,73374
2017-01-02T00:01:05.868Z,73372
2017-01-02T00:01:14.565Z,73376
2017-01-02T00:01:23.230Z,73371
2017-01-02T00:01:31.898Z,73373
2017-01-02T00:01:40.571Z,73378
2017-01-02T00:01:49.232Z,73381
2017-01-02T00:01:57.899Z,73381
2017-01-02T00:02:06.578Z,73382
2017-01-02T00:02:15.260Z,73380
2017-01-02T00:02:23.934Z,73387
2017-01-02T00:02:32.608Z,73391
2017-01-02T00:02:41.288Z,73390
2017-01-02T00:02:49.966Z,73388
2017-01-02T00:02:58.638Z,73383
2017-01-02T00:03:07.313Z,73384
2017-01-02T00:03:15.968Z,73371
2017-01-02T00:03:24.646Z,73381
2017-01-02T00:03:33.323Z,73378
2017-01-02T00:03:42.022Z,73381
2017-01-02T00:03:50.701Z,73374
2017-01-02T00:03:59.382Z,73376
2017-01-02T00:04:08.050Z,73377
2017-01-02T00:04:16.754Z,73375
2017-01-02T00:04:25.419Z,73374
2017-01-02T00:04:34.081Z,73382
2017-01-02T00:04:42.747Z,73384
2017-01-02T00:04:51.422Z,73387
2017-01-02T00:05:00.093Z,73378
2017-01-02T00:05:08.769Z,73378
2017-01-02T00:05:17.428Z,73375
2017-01-02T00:05:26.497Z,73377
2017-01-02T00:05:35.163Z,73383
2017-01-02T00:05:43.812Z,73380
2017-01-02T00:05:52.486Z,73375
2017-01-02T00:06:01.152Z,73380
2017-01-02T00:06:09.847Z,73374
2017-01-02T00:06:18.523Z,73376
2017-01-02T00:06:27.188Z,73369
2017-01-02T00:06:35.846Z,73371
2017-01-02T00:06:44.501Z,73372
2017-01-02T00:06:53.168Z,73374
2017-01-02T00:07:01.831Z,73374
2017-01-02T00:07:10.518Z,73378
2017-01-02T00:07:19.194Z,73378
2017-01-02T00:07:27.877Z,73381
2017-01-02T00:07:36.577Z,73383
2017-01-02T00:07:45.242Z,73383
2017-01-02T00:07:53.922Z,73384
2017-01-02T00:08:02.602Z,73380
2017-01-02T00:08:11.277Z,73380
2017-01-02T00:08:19.964Z,73379
2017-01-02T00:08:28.629Z,73381
2017-01-02T00:08:37.304Z,73379
2017-01-02T00:08:45.969Z,73374
2017-01-02T00:08:54.642Z,73378
2017-01-02T00:09:03.328Z,73373
2017-01-02T00:09:12.021Z,73384
2017-01-02T00:09:20.681Z,73378
2017-01-02T00:09:29.339Z,73373
2017-01-02T00:09:38.004Z,73371
2017-01-02T00:09:46.676Z,73379
2017-01-02T00:09:55.321Z,73379
2017-01-02T00:10:03.987Z,73379
2017-01-02T00:10:12.684Z,73376
2017-01-02T00:10:21.352Z,73367
2017-01-02T00:10:30.048Z,73367
2017-01-02T00:10:38.714Z,73368
2017-01-02T00:10:47.382Z,73366
2017-01-02T00:10:56.047Z,73363
2017-01-02T00:11:04.734Z,73364
2017-01-02T00:11:13.428Z,73366
2017-01-02T00:11:22.098Z,73368
2017-01-02T00:11:31.145Z,73373
2017-01-02T00:11:39.820Z,73375
2017-01-02T00:11:48.488Z,73374
2017-01-02T00:11:57.149Z,73369
2017-01-02T00:12:05.823Z,73368
2017-01-02T00:12:14.487Z,73369
2017-01-02T00:12:23.128Z,73369
2017-01-02T00:12:31.805Z,73368
2017-01-02T00:12:40.483Z,73368
2017-01-02T00:12:49.153Z,73363
2017-01-02T00:12:57.838Z,73379
2017-01-02T00:13:06.535Z,73379
2017-01-02T00:13:15.208Z,73380
2017-01-02T00:13:23.874Z,73382
2017-01-02T00:13:32.563Z,73382
2017-01-02T00:13:41.238Z,73372
2017-01-02T00:13:49.917Z,73367
2017-01-02T00:13:58.583Z,73364
2017-01-02T00:14:07.259Z,73370
2017-01-02T00:14:15.926Z,73369
2017-01-02T00:14:24.597Z,73373
2017-01-02T00:14:33.246Z,73382
2017-01-02T00:14:41.922Z,73379
2017-01-02T00:14:50.609Z,73377
2017-01-02T00:14:59.302Z,73373
2017-01-02T00:15:08.004Z,73369
2017-01-02T00:15:16.680Z,73365
2017-01-02T00:15:25.370Z,73366
2017-01-02T00:15:34.046Z,73368
2017-01-02T00:15:42.739Z,73369
2017-01-02T00:15:51.430Z,73369
2017-01-02T00:16:00.074Z,73372
2017-01-02T00:16:08.760Z,73370
2017-01-02T00:16:17.434Z,73367
2017-01-02T00:16:26.094Z,73363
2017-01-02T00:16:34.767Z,73364
2017-01-02T00:16:43.457Z,73370
2017-01-02T00:16:52.113Z,73359
2017-01-02T00:17:00.801Z,73366
2017-01-02T00:17:09.449Z,73367
2017-01-02T00:17:18.117Z,73364
2017-01-02T00:17:26.802Z,73363
2017-01-02T00:17:35.485Z,73360
2017-01-02T00:17:44.172Z,73365
2017-01-02T00:17:52.839Z,73376
2017-01-02T00:18:01.506Z,73379
2017-01-02T00:18:10.171Z,73377
2017-01-02T00:18:18.859Z,73378
2017-01-02T00:18:27.533Z,73372
2017-01-02T00:18:36.333Z,73371
2017-01-02T00:18:45.001Z,73370
2017-01-02T00:18:53.683Z,73367
2017-01-02T00:19:02.377Z,73367
2017-01-02T00:19:11.038Z,73366
2017-01-02T00:19:19.699Z,73362
2017-01-02T00:19:28.357Z,73365
2017-01-02T00:19:37.028Z,73360
2017-01-02T00:19:45.694Z,73372
2017-01-02T00:19:54.368Z,73361
2017-01-02T00:20:03.061Z,73370
2017-01-02T00:20:11.732Z,73367
2017-01-02T00:20:20.422Z,73371
2017-01-02T00:20:29.077Z,73372
2017-01-02T00:20:37.739Z,73371
2017-01-02T00:20:46.414Z,73375
2017-01-02T00:20:55.078Z,73365
2017-01-02T00:21:03.796Z,73366
2017-01-02T00:21:12.486Z,73372
2017-01-02T00:21:21.154Z,73367
2017-01-02T00:21:29.835Z,73362
2017-01-02T00:21:38.509Z,73365
2017-01-02T00:21:47.185Z,73366
2017-01-02T00:21:55.848Z,73365
2017-01-02T00:22:04.532Z,73371
2017-01-02T00:22:13.200Z,73372
2017-01-02T00:22:21.873Z,73371
2017-01-02T00:22:30.530Z,73364
2017-01-02T00:22:39.203Z,73365
2017-01-02T00:22:47.859Z,73361
2017-01-02T00:22:56.895Z,73358
2017-01-02T00:23:05.595Z,73363
2017-01-02T00:23:14.265Z,73369
2017-01-02T00:23:22.941Z,73374
2017-01-02T00:23:31.608Z,73373
2017-01-02T00:23:40.298Z,73377
2017-01-02T00:23:48.973Z,73368
2017-01-02T00:23:57.624Z,73371
2017-01-02T00:24:06.303Z,73365
2017-01-02T00:24:14.987Z,73368
2017-01-02T00:24:23.644Z,73366
2017-01-02T00:24:32.320Z,73368
2017-01-02T00:24:40.983Z,73372
2017-01-02T00:24:49.656Z,73372
2017-01-02T00:24:58.303Z,73365
2017-01-02T00:25:06.977Z,73361
2017-01-02T00:25:15.636Z,73367
2017-01-02T00:25:24.296Z,73364
2017-01-02T00:25:32.969Z,73357
2017-01-02T00:25:41.607Z,73353
2017-01-02T00:25:50.278Z,73355
2017-01-02T00:25:58.969Z,73356
2017-01-02T00:26:07.647Z,73358
2017-01-02T00:26:16.328Z,73364
2017-01-02T00:26:25.016Z,73369
2017-01-02T00:26:33.701Z,73368
2017-01-02T00:26:42.789Z,73371
2017-01-02T00:26:51.481Z,73365
2017-01-02T00:27:00.182Z,73364
2017-01-02T00:27:08.869Z,73360
2017-01-02T00:27:17.564Z,73359
2017-01-02T00:27:26.258Z,73360
2017-01-02T00:27:34.937Z,73352
2017-01-02T00:27:43.621Z,73353
2017-01-02T00:27:52.293Z,73358
2017-01-02T00:28:00.965Z,73369
2017-01-02T00:28:09.640Z,73362
2017-01-02T00:28:18.324Z,73360
2017-01-02T00:28:26.989Z,73365
2017-01-02T00:28:36.028Z,73363
2017-01-02T00:28:44.710Z,73360
2017-01-02T00:28:53.745Z,73356
2017-01-02T00:29:02.420Z,73352
2017-01-02T00:29:11.122Z,73357
2017-01-02T00:29:19.776Z,73354
2017-01-02T00:29:28.468Z,73359
2017-01-02T00:29:37.141Z,73356
2017-01-02T00:29:45.823Z,73357
2017-01-02T00:29:54.515Z,73358
2017-01-02T00:30:03.184Z,73350
2017-01-02T00:30:11.833Z,73350
2017-01-02T00:30:20.504Z,73356
2017-01-02T00:30:29.181Z,73355
2017-01-02T00:30:37.836Z,73354
2017-01-02T00:30:46.519Z,73353
2017-01-02T00:30:55.196Z,73358
2017-01-02T00:31:03.857Z,73365
2017-01-02T00:31:12.548Z,73364
2017-01-02T00:31:21.218Z,73364
2017-01-02T00:31:29.870Z,73360
2017-01-02T00:31:38.530Z,73362
2017-01-02T00:31:47.188Z,73359
2017-01-02T00:31:55.849Z,73358
2017-01-02T00:32:04.519Z,73355
2017-01-02T00:32:13.196Z,73354
2017-01-02T00:32:21.878Z,73356
2017-01-02T00:32:30.551Z,73355
2017-01-02T00:32:39.218Z,73356
2017-01-02T00:32:47.903Z,73357
2017-01-02T00:32:56.575Z,73351
2017-01-02T00:33:05.233Z,73351
2017-01-02T00:33:13.902Z,73352
2017-01-02T00:33:22.589Z,73354
2017-01-02T00:33:31.283Z,73357
2017-01-02T00:33:39.947Z,73360
2017-01-02T00:33:48.646Z,73360
2017-01-02T00:33:57.298Z,73356
2017-01-02T00:34:05.960Z,73355
2017-01-02T00:34:14.630Z,73356
2017-01-02T00:34:23.312Z,73361
2017-01-02T00:34:31.987Z,73358
2017-01-02T00:34:40.666Z,73363
2017-01-02T00:34:49.343Z,73364
2017-01-02T00:34:58.025Z,73365
2017-01-02T00:35:06.696Z,73365
2017-01-02T00:35:15.372Z,73362
2017-01-02T00:35:24.093Z,73358
2017-01-02T00:35:32.756Z,73353
2017-01-02T00:35:41.422Z,73350
2017-01-02T00:35:50.106Z,73350
2017-01-02T00:35:58.790Z,73356
2017-01-02T00:36:07.460Z,73358
2017-01-02T00:36:16.126Z,73356
2017-01-02T00:36:24.791Z,73360
2017-01-02T00:36:33.457Z,73360
2017-01-02T00:36:42.120Z,73365
2017-01-02T00:36:50.787Z,73360
2017-01-02T00:36:59.475Z,73357
2017-01-02T00:37:08.145Z,73360
2017-01-02T00:37:16.840Z,73358
2017-01-02T00:37:25.507Z,73364
2017-01-02T00:37:34.160Z,73367
2017-01-02T00:37:42.839Z,73365
2017-01-02T00:37:51.516Z,73374
2017-01-02T00:38:00.177Z,73354
2017-01-02T00:38:08.847Z,73361
2017-01-02T00:38:17.511Z,73370
2017-01-02T00:38:26.195Z,73368
2017-01-02T00:38:34.847Z,73369
2017-01-02T00:38:43.505Z,73367
2017-01-02T00:38:52.214Z,73365
2017-01-02T00:39:00.888Z,73356
2017-01-02T00:39:09.558Z,73353
2017-01-02T00:39:18.240Z,73347
2017-01-02T00:39:26.901Z,73352
2017-01-02T00:39:35.584Z,73349
2017-01-02T00:39:44.251Z,73344
2017-01-02T00:39:52.934Z,73349
2017-01-02T00:40:01.613Z,73347
2017-01-02T00:40:10.290Z,73352
2017-01-02T00:40:18.972Z,73364
2017-01-02T00:40:27.643Z,73359
2017-01-02T00:40:36.316Z,73361
2017-01-02T00:40:44.992Z,73359
2017-01-02T00:40:53.688Z,73360
2017-01-02T00:41:02.357Z,73374
2017-01-02T00:41:11.022Z,73366
2017-01-02T00:41:19.687Z,73365
2017-01-02T00:41:28.363Z,73360
2017-01-02T00:41:37.027Z,73363
2017-01-02T00:41:45.701Z,73365
2017-01-02T00:41:54.366Z,73366
2017-01-02T00:42:03.038Z,73366
2017-01-02T00:42:11.716Z,73369
2017-01-02T00:42:20.389Z,73371
2017-01-02T00:42:29.076Z,73376
2017-01-02T00:42:37.760Z,73373
2017-01-02T00:42:46.414Z,73367
2017-01-02T00:42:55.453Z,73366
2017-01-02T00:43:04.128Z,73365
2017-01-02T00:43:12.786Z,73363
2017-01-02T00:43:21.498Z,73361
2017-01-02T00:43:30.530Z,73363
2017-01-02T00:43:39.173Z,73357
2017-01-02T00:43:47.833Z,73353
2017-01-02T00:43:56.505Z,73351
2017-01-02T00:44:05.199Z,73351
2017-01-02T00:44:13.859Z,73356
2017-01-02T00:44:22.531Z,73358
2017-01-02T00:44:31.223Z,73367
2017-01-02T00:44:39.899Z,73360
2017-01-02T00:44:48.565Z,73357
2017-01-02T00:44:57.232Z,73355
2017-01-02T00:45:05.912Z,73359
2017-01-02T00:45:14.595Z,73359
2017-01-02T00:45:23.261Z,73356
2017-01-02T00:45:31.925Z,73360
2017-01-02T00:45:40.593Z,73364
2017-01-02T00:45:49.256Z,73358
2017-01-02T00:45:57.927Z,73359
2017-01-02T00:46:06.589Z,73360
2017-01-02T00:46:15.236Z,73362
2017-01-02T00:46:23.908Z,73364
2017-01-02T00:46:32.592Z,73357
2017-01-02T00:46:41.275Z,73356
2017-01-02T00:46:49.936Z,73360
2017-01-02T00:46:58.611Z,73360
2017-01-02T00:47:07.286Z,73363
2017-01-02T00:47:15.984Z,73367
2017-01-02T00:47:24.719Z,73368
2017-01-02T00:47:33.404Z,73363
2017-01-02T00:47:42.103Z,73365
2017-01-02T00:47:50.779Z,73367
2017-01-02T00:47:59.489Z,73359
2017-01-02T00:48:08.145Z,73356
2017-01-02T00:48:16.824Z,73362
2017-01-02T00:48:25.523Z,73350
2017-01-02T00:48:34.205Z,73358
2017-01-02T00:48:42.878Z,73359
2017-01-02T00:48:51.562Z,73354
2017-01-02T00:49:00.226Z,73352
2017-01-02T00:49:08.906Z,73354
2017-01-02T00:49:17.570Z,73353
2017-01-02T00:49:26.256Z,73353
2017-01-02T00:49:34.954Z,73355
2017-01-02T00:49:43.616Z,73359
2017-01-02T00:49:52.297Z,73359
2017-01-02T00:50:00.956Z,73359
2017-01-02T00:50:09.635Z,73357
2017-01-02T00:50:18.307Z,73360
2017-01-02T00:50:26.975Z,73361
2017-01-02T00:50:36.013Z,73363
2017-01-02T00:50:44.694Z,73361
2017-01-02T00:50:53.371Z,73363
2017-01-02T00:51:02.041Z,73365
2017-01-02T00:51:10.739Z,73367
2017-01-02T00:51:19.414Z,73369
2017-01-02T00:51:28.058Z,73368
2017-01-02T00:51:36.735Z,73365
2017-01-02T00:51:45.403Z,73360
2017-01-02T00:51:54.088Z,73359
2017-01-02T00:52:02.753Z,73360
2017-01-02T00:52:11.430Z,73359
2017-01-02T00:52:20.116Z,73363
2017-01-02T00:52:28.801Z,73364
2017-01-02T00:52:37.468Z,73367
2017-01-02T00:52:46.141Z,73369
2017-01-02T00:52:54.817Z,73361
2017-01-02T00:53:03.504Z,73361
2017-01-02T00:53:12.173Z,73363
2017-01-02T00:53:20.851Z,73365
2017-01-02T00:53:29.549Z,73365
2017-01-02T00:53:38.212Z,73361
2017-01-02T00:53:46.909Z,73358
2017-01-02T00:53:55.584Z,73358
2017-01-02T00:54:04.264Z,73358
2017-01-02T00:54:12.938Z,73359
2017-01-02T00:54:21.623Z,73355
2017-01-02T00:54:30.278Z,73357
2017-01-02T00:54:38.954Z,73360
2017-01-02T00:54:47.617Z,73362
2017-01-02T00:54:56.282Z,73359
2017-01-02T00:55:04.951Z,73357
2017-01-02T00:55:13.642Z,73360
2017-01-02T00:55:22.326Z,73357
2017-01-02T00:55:30.977Z,73356
2017-01-02T00:55:39.646Z,73357
2017-01-02T00:55:48.323Z,73355
2017-01-02T00:55:56.996Z,73356
2017-01-02T00:56:05.658Z,73354
2017-01-02T00:56:14.325Z,73352
2017-01-02T00:56:22.984Z,73355
2017-01-02T00:56:32.016Z,73358
2017-01-02T00:56:40.693Z,73356
2017-01-02T00:56:49.364Z,73355
2017-01-02T00:56:58.071Z,73359
2017-01-02T00:57:06.750Z,73362
2017-01-02T00:57:15.417Z,73359
2017-01-02T00:57:24.103Z,73369
2017-01-02T00:57:32.770Z,73360
2017-01-02T00:57:41.452Z,73359
2017-01-02T00:57:50.148Z,73366
2017-01-02T00:57:58.810Z,73359
2017-01-02T00:58:07.490Z,73352
2017-01-02T00:58:16.168Z,73357
2017-01-02T00:58:24.829Z,73350
2017-01-02T00:58:33.500Z,73347
2017-01-02T00:58:42.167Z,73350
2017-01-02T00:58:50.832Z,73351
2017-01-02T00:58:59.504Z,73348
2017-01-02T00:59:08.169Z,73349
2017-01-02T00:59:16.844Z,73349
2017-01-02T00:59:25.504Z,73347
2017-01-02T00:59:34.147Z,73348
2017-01-02T00:59:42.819Z,73354
2017-01-02T00:59:51.512Z,73353
2017-01-02T01:00:00.172Z,73357
2017-01-02T01:00:08.840Z,73364
2017-01-02T01:00:17.504Z,73362
2017-01-02T01:00:26.179Z,73363
2017-01-02T01:00:34.846Z,73360
2017-01-02T01:00:43.527Z,73360
2017-01-02T01:00:52.223Z,73368
2017-01-02T01:01:00.906Z,73362
2017-01-02T01:01:09.588Z,73360
2017-01-02T01:01:18.263Z,73355
2017-01-02T01:01:26.940Z,73353
2017-01-02T01:01:35.612Z,73351
2017-01-02T01:01:44.287Z,73352
2017-01-02T01:01:52.945Z,73354
2017-01-02T01:02:01.619Z,73350
2017-01-02T01:02:10.284Z,73351
2017-01-02T01:02:19.337Z,73349
2017-01-02T01:02:28.013Z,73343
2017-01-02T01:02:36.677Z,73334
2017-01-02T01:02:45.363Z,73340
2017-01-02T01:02:54.037Z,73343
2017-01-02T01:03:02.706Z,73347
2017-01-02T01:03:11.376Z,73349
2017-01-02T01:03:20.060Z,73349
2017-01-02T01:03:28.745Z,73348
2017-01-02T01:03:37.415Z,73348
2017-01-02T01:03:46.080Z,73348
2017-01-02T01:03:54.750Z,73347
2017-01-02T01:04:03.459Z,73348
2017-01-02T01:04:12.121Z,73351
2017-01-02T01:04:20.784Z,73356
2017-01-02T01:04:29.458Z,73354
2017-01-02T01:04:38.108Z,73355
2017-01-02T01:04:46.778Z,73357
2017-01-02T01:04:55.466Z,73353
2017-01-02T01:05:04.127Z,73355
2017-01-02T01:05:12.806Z,73351
2017-01-02T01:05:21.466Z,73352
2017-01-02T01:05:30.142Z,73347
2017-01-02T01:05:38.803Z,73349
2017-01-02T01:05:47.464Z,73353
2017-01-02T01:05:56.144Z,73350
2017-01-02T01:06:04.825Z,73348
2017-01-02T01:06:13.492Z,73351
2017-01-02T01:06:22.154Z,73349
2017-01-02T01:06:30.833Z,73354
2017-01-02T01:06:39.493Z,73356
2017-01-02T01:06:48.160Z,73355
2017-01-02T01:06:56.849Z,73353
2017-01-02T01:07:05.904Z,73354
2017-01-02T01:07:14.592Z,73358
2017-01-02T01:07:23.264Z,73363
2017-01-02T01:07:31.924Z,73364
2017-01-02T01:07:40.603Z,73359
2017-01-02T01:07:49.274Z,73355
2017-01-02T01:07:57.930Z,73352
2017-01-02T01:08:06.596Z,73357
2017-01-02T01:08:15.267Z,73354
2017-01-02T01:08:23.935Z,73357
2017-01-02T01:08:32.609Z,73349
2017-01-02T01:08:41.289Z,73352
2017-01-02T01:08:49.970Z,73350
2017-01-02T01:08:58.656Z,73353
2017-01-02T01:09:07.338Z,73357
2017-01-02T01:09:16.024Z,73358
2017-01-02T01:09:24.696Z,73358
2017-01-02T01:09:33.371Z,73349
2017-01-02T01:09:42.040Z,73350
2017-01-02T01:09:50.722Z,73355
2017-01-02T01:09:59.399Z,73356
2017-01-02T01:10:08.057Z,73355
2017-01-02T01:10:16.737Z,73352
2017-01-02T01:10:25.393Z,73354
2017-01-02T01:10:34.088Z,73352
2017-01-02T01:10:42.749Z,73353
2017-01-02T01:10:51.434Z,73352
2017-01-02T01:11:00.119Z,73347
2017-01-02T01:11:08.765Z,73349
2017-01-02T01:11:17.451Z,73351
2017-01-02T01:11:26.170Z,73348
2017-01-02T01:11:34.842Z,73346
2017-01-02T01:11:43.514Z,73352
2017-01-02T01:11:52.180Z,73350
2017-01-02T01:12:00.849Z,73351
2017-01-02T01:12:09.532Z,73351
2017-01-02T01:12:18.181Z,73355
2017-01-02T01:12:26.858Z,73359
2017-01-02T01:12:35.531Z,73353
2017-01-02T01:12:44.205Z,73351
2017-01-02T01:12:52.850Z,73359
2017-01-02T01:13:01.545Z,73356
2017-01-02T01:13:10.216Z,73354
2017-01-02T01:13:18.891Z,73359
2017-01-02T01:13:27.554Z,73352
2017-01-02T01:13:36.233Z,73354
2017-01-02T01:13:44.909Z,73354
2017-01-02T01:13:53.590Z,73352
2017-01-02T01:14:02.246Z,73354
2017-01-02T01:14:10.929Z,73358
2017-01-02T01:14:19.627Z,73362
2017-01-02T01:14:28.289Z,73357
2017-01-02T01:14:36.972Z,73365
2017-01-02T01:14:45.643Z,73364
2017-01-02T01:14:54.296Z,73360
2017-01-02T01:15:02.966Z,73355
2017-01-02T01:15:12.030Z,73357
2017-01-02T01:15:20.723Z,73356
2017-01-02T01:15:29.408Z,73355
2017-01-02T01:15:38.080Z,73355
2017-01-02T01:15:46.741Z,73359
2017-01-02T01:15:55.426Z,73357
2017-01-02T01:16:04.104Z,73353
2017-01-02T01:16:12.781Z,73356
2017-01-02T01:16:21.460Z,73362
2017-01-02T01:16:30.140Z,73356
2017-01-02T01:16:39.202Z,73354
2017-01-02T01:16:47.879Z,73357
2017-01-02T01:16:56.562Z,73358
2017-01-02T01:17:05.241Z,73358
2017-01-02T01:17:13.894Z,73357
2017-01-02T01:17:22.581Z,73362
2017-01-02T01:17:31.253Z,73360
2017-01-02T01:17:39.910Z,73358
2017-01-02T01:17:48.580Z,73354
2017-01-02T01:17:57.251Z,73351
2017-01-02T01:18:05.940Z,73354
2017-01-02T01:18:14.616Z,73356
2017-01-02T01:18:23.321Z,73361
2017-01-02T01:18:32.017Z,73355
2017-01-02T01:18:40.697Z,73354
2017-01-02T01:18:49.362Z,73363
2017-01-02T01:18:58.050Z,73361
2017-01-02T01:19:06.720Z,73356
2017-01-02T01:19:15.789Z,73353
2017-01-02T01:19:24.461Z,73356
2017-01-02T01:19:33.115Z,73356
2017-01-02T01:19:41.810Z,73358
2017-01-02T01:19:50.481Z,73357
2017-01-02T01:19:59.159Z,73355
2017-01-02T01:20:07.851Z,73354
2017-01-02T01:20:16.522Z,73356
2017-01-02T01:20:25.206Z,73359
2017-01-02T01:20:33.878Z,73359
2017-01-02T01:20:42.561Z,73361
2017-01-02T01:20:51.230Z,73359
2017-01-02T01:20:59.902Z,73356
2017-01-02T01:21:08.558Z,73354
2017-01-02T01:21:17.233Z,73351
2017-01-02T01:21:25.910Z,73352
2017-01-02T01:21:34.588Z,73349
2017-01-02T01:21:43.258Z,73349
2017-01-02T01:21:51.933Z,73345
2017-01-02T01:22:00.622Z,73347
2017-01-02T01:22:09.307Z,73345
2017-01-02T01:22:17.989Z,73351
2017-01-02T01:22:26.676Z,73349
2017-01-02T01:22:35.363Z,73351
2017-01-02T01:22:44.020Z,73353
2017-01-02T01:22:52.699Z,73355
2017-01-02T01:23:01.359Z,73353
2017-01-02T01:23:10.044Z,73357
2017-01-02T01:23:18.724Z,73354
2017-01-02T01:23:27.396Z,73357
2017-01-02T01:23:36.053Z,73356
2017-01-02T01:23:44.727Z,73354
2017-01-02T01:23:53.386Z,73359
2017-01-02T01:24:02.058Z,73352
2017-01-02T01:24:11.693Z,73349
2017-01-02T01:24:20.356Z,73345
2017-01-02T01:24:29.039Z,73347
2017-01-02T01:24:37.720Z,73347
2017-01-02T01:24:46.379Z,73342
2017-01-02T01:24:55.044Z,73345
2017-01-02T01:25:03.718Z,73345
2017-01-02T01:25:12.395Z,73349
2017-01-02T01:25:21.075Z,73348
2017-01-02T01:25:29.749Z,73351
2017-01-02T01:25:38.410Z,73352
2017-01-02T01:25:47.064Z,73354
2017-01-02T01:25:55.752Z,73351
2017-01-02T01:26:04.424Z,73354
2017-01-02T01:26:13.076Z,73350
2017-01-02T01:26:21.747Z,73344
2017-01-02T01:26:30.408Z,73344
2017-01-02T01:26:39.068Z,73346
2017-01-02T01:26:47.727Z,73349
2017-01-02T01:26:56.392Z,73346
2017-01-02T01:27:05.068Z,73353
2017-01-02T01:27:13.741Z,73351
2017-01-02T01:27:22.436Z,73341
2017-01-02T01:27:31.139Z,73341
2017-01-02T01:27:39.823Z,73345
2017-01-02T01:27:48.486Z,73351
2017-01-02T01:27:57.161Z,73352
2017-01-02T01:28:05.826Z,73352
2017-01-02T01:28:14.495Z,73351
2017-01-02T01:28:23.141Z,73349
2017-01-02T01:28:31.821Z,73344
2017-01-02T01:28:40.483Z,73342
2017-01-02T01:28:49.166Z,73341
2017-01-02T01:28:57.831Z,73342
2017-01-02T01:29:06.518Z,73347
2017-01-02T01:29:15.188Z,73348
2017-01-02T01:29:23.859Z,73346
2017-01-02T01:29:32.529Z,73348
2017-01-02T01:29:41.582Z,73345
2017-01-02T01:29:50.239Z,73347
2017-01-02T01:29:58.914Z,73350
2017-01-02T01:30:07.586Z,73347
2017-01-02T01:30:16.262Z,73341
2017-01-02T01:30:24.914Z,73340
2017-01-02T01:30:33.573Z,73338
2017-01-02T01:30:42.239Z,73331
2017-01-02T01:30:50.919Z,73332
2017-01-02T01:30:59.579Z,73323
2017-01-02T01:31:08.279Z,73322
2017-01-02T01:31:16.951Z,73326
2017-01-02T01:31:25.612Z,73328
2017-01-02T01:31:34.286Z,73327
2017-01-02T01:31:42.941Z,73334
2017-01-02T01:31:51.619Z,73335
2017-01-02T01:32:00.274Z,73343
2017-01-02T01:32:08.952Z,73342
2017-01-02T01:32:17.627Z,73340
2017-01-02T01:32:26.320Z,73337
2017-01-02T01:32:34.997Z,73337
2017-01-02T01:32:43.671Z,73334
2017-01-02T01:32:52.327Z,73338
2017-01-02T01:33:01.004Z,73333
2017-01-02T01:33:09.686Z,73339
2017-01-02T01:33:18.357Z,73346
2017-01-02T01:33:27.039Z,73344
2017-01-02T01:33:35.717Z,73346
2017-01-02T01:33:44.400Z,73341
2017-01-02T01:33:53.057Z,73338
2017-01-02T01:34:01.739Z,73339
2017-01-02T01:34:10.452Z,73344
2017-01-02T01:34:19.479Z,73342
2017-01-02T01:34:28.150Z,73345
2017-01-02T01:34:36.838Z,73343
2017-01-02T01:34:45.491Z,73338
2017-01-02T01:34:54.166Z,73338
2017-01-02T01:35:02.854Z,73336
2017-01-02T01:35:11.508Z,73337
2017-01-02T01:35:20.184Z,73337
2017-01-02T01:35:28.857Z,73333
2017-01-02T01:35:37.547Z,73327
2017-01-02T01:35:46.235Z,73333
2017-01-02T01:35:54.893Z,73332
2017-01-02T01:36:03.561Z,73341
2017-01-02T01:36:12.224Z,73342
2017-01-02T01:36:20.904Z,73343
2017-01-02T01:36:29.578Z,73343
2017-01-02T01:36:38.253Z,73343
2017-01-02T01:36:46.932Z,73344
2017-01-02T01:36:55.603Z,73346
2017-01-02T01:37:04.272Z,73351
2017-01-02T01:37:12.943Z,73349
2017-01-02T01:37:21.610Z,73350
2017-01-02T01:37:30.260Z,73345
2017-01-02T01:37:38.952Z,73344
2017-01-02T01:37:47.620Z,73342
2017-01-02T01:37:56.296Z,73344
2017-01-02T01:38:04.967Z,73344
2017-01-02T01:38:13.653Z,73344
2017-01-02T01:38:22.325Z,73347
2017-01-02T01:38:30.993Z,73350
2017-01-02T01:38:39.668Z,73345
2017-01-02T01:38:48.324Z,73346
2017-01-02T01:38:56.993Z,73343
2017-01-02T01:39:05.679Z,73339
2017-01-02T01:39:14.747Z,73340
2017-01-02T01:39:23.400Z,73342
2017-01-02T01:39:32.045Z,73345
2017-01-02T01:39:40.702Z,73344
2017-01-02T01:39:49.367Z,73342
2017-01-02T01:39:58.037Z,73344
2017-01-02T01:40:06.693Z,73346
2017-01-02T01:40:15.358Z,73347
2017-01-02T01:40:24.049Z,73347
2017-01-02T01:40:32.725Z,73343
2017-01-02T01:40:41.391Z,73339
2017-01-02T01:40:50.069Z,73330
2017-01-02T01:40:58.753Z,73329
2017-01-02T01:41:07.421Z,73333
2017-01-02T01:41:16.081Z,73337
2017-01-02T01:41:24.779Z,73332
2017-01-02T01:41:33.452Z,73335
2017-01-02T01:41:42.103Z,73333
2017-01-02T01:41:50.786Z,73335
2017-01-02T01:41:59.473Z,73343
2017-01-02T01:42:08.148Z,73344
2017-01-02T01:42:16.818Z,73337
2017-01-02T01:42:25.484Z,73342
2017-01-02T01:42:34.151Z,73343
2017-01-02T01:42:42.834Z,73346
2017-01-02T01:42:51.877Z,73342
2017-01-02T01:43:00.554Z,73344
2017-01-02T01:43:09.235Z,73343
2017-01-02T01:43:17.890Z,73346
2017-01-02T01:43:26.530Z,73346
2017-01-02T01:43:35.192Z,73342
2017-01-02T01:43:43.875Z,73346
2017-01-02T01:43:52.543Z,73344
2017-01-02T01:44:01.215Z,73351
2017-01-02T01:44:09.883Z,73351
2017-01-02T01:44:18.560Z,73349
2017-01-02T01:44:27.226Z,73350
2017-01-02T01:44:35.888Z,73349
2017-01-02T01:44:44.548Z,73345
2017-01-02T01:44:53.216Z,73348
2017-01-02T01:45:01.877Z,73342
2017-01-02T01:45:10.549Z,73346
2017-01-02T01:45:19.199Z,73348
2017-01-02T01:45:27.881Z,73345
2017-01-02T01:45:36.540Z,73342
2017-01-02T01:45:45.210Z,73350
2017-01-02T01:45:53.870Z,73349
2017-01-02T01:46:02.552Z,73347
2017-01-02T01:46:11.228Z,73347
2017-01-02T01:46:19.874Z,73337
2017-01-02T01:46:28.560Z,73335
2017-01-02T01:46:37.224Z,73344
2017-01-02T01:46:45.927Z,73350
2017-01-02T01:46:54.603Z,73350
2017-01-02T01:47:03.280Z,73343
2017-01-02T01:47:11.946Z,73336
2017-01-02T01:47:20.625Z,73338
2017-01-02T01:47:29.288Z,73338
2017-01-02T01:47:37.956Z,73344
2017-01-02T01:47:46.618Z,73344
2017-01-02T01:47:55.654Z,73347
2017-01-02T01:48:04.309Z,73352
2017-01-02T01:48:13.019Z,73346
2017-01-02T01:48:21.729Z,73346
2017-01-02T01:48:30.414Z,73340
2017-01-02T01:48:39.092Z,73338
2017-01-02T01:48:47.761Z,73334
2017-01-02T01:48:56.417Z,73334
2017-01-02T01:49:05.104Z,73341
2017-01-02T01:49:13.801Z,73339
2017-01-02T01:49:22.467Z,73339
2017-01-02T01:49:31.157Z,73345
2017-01-02T01:49:39.863Z,73342
2017-01-02T01:49:48.516Z,73346
2017-01-02T01:49:57.567Z,73341
2017-01-02T01:50:06.249Z,73347
2017-01-02T01:50:14.903Z,73347
2017-01-02T01:50:23.577Z,73348
2017-01-02T01:50:32.236Z,73345
2017-01-02T01:50:40.925Z,73335
2017-01-02T01:50:49.601Z,73337
2017-01-02T01:50:58.277Z,73334
2017-01-02T01:51:06.959Z,73334
2017-01-02T01:51:15.600Z,73338
2017-01-02T01:51:24.279Z,73337
2017-01-02T01:51:32.938Z,73336
2017-01-02T01:51:41.611Z,73343
2017-01-02T01:51:50.280Z,73335